Time;durP1;ratioP1;P1;durP2;ratioP2;P2;SDS_P1;SDS_P2;PMS_P1;PMS_P2;Temp;Humidity;BMP_temperature;BMP_pressure;BME280_temperature;BME280_humidity;BME280_pressure;Samples;Min_cycle;Max_cycle;Signal;HPM_P1;HPM_P2
2023/09/21 00:00:22;;;;;;;0.70;0.30;;;13.80;99.90;;;;;;5043818;28;20817;-76
2023/09/21 00:02:56;;;;;;;0.68;0.20;;;13.80;99.90;;;;;;5082965;28;20518;-76
2023/09/21 00:05:28;;;;;;;0.65;0.20;;;13.80;99.90;;;;;;5050814;28;20052;-76
2023/09/21 00:07:57;;;;;;;0.32;0.30;;;13.70;99.90;;;;;;5081544;28;20048;-76
2023/09/21 00:10:31;;;;;;;0.20;0.20;;;13.70;99.90;;;;;;5049896;28;20411;-76
2023/09/21 00:12:59;;;;;;;0.20;0.20;;;13.70;99.90;;;;;;5067195;28;20036;-75
2023/09/21 00:15:29;;;;;;;0.35;0.22;;;13.60;99.90;;;;;;5066198;28;20047;-75
2023/09/21 00:17:56;;;;;;;0.22;0.20;;;13.70;99.90;;;;;;5065986;28;20105;-74
2023/09/21 00:20:25;;;;;;;0.50;0.28;;;13.70;99.90;;;;;;5060423;28;20210;-74
2023/09/21 00:22:53;;;;;;;0.43;0.30;;;13.70;99.90;;;;;;5064523;28;20040;-75
2023/09/21 00:25:23;;;;;;;0.60;0.32;;;13.70;99.90;;;;;;5062336;28;20070;-74
2023/09/21 00:27:50;;;;;;;1.13;0.45;;;13.60;99.90;;;;;;5058507;28;20536;-74
2023/09/21 00:30:17;;;;;;;0.15;0.15;;;13.60;99.90;;;;;;5065166;28;20056;-74
2023/09/21 00:32:44;;;;;;;0.43;0.30;;;13.60;99.90;;;;;;5062611;28;20041;-74
2023/09/21 00:35:11;;;;;;;1.10;0.50;;;13.60;99.90;;;;;;5059486;28;20522;-74
2023/09/21 00:37:39;;;;;;;0.50;0.30;;;13.60;99.90;;;;;;5080185;28;20040;-74
2023/09/21 00:40:19;;;;;;;0.50;0.47;;;13.60;99.90;;;;;;5064809;28;20048;-74
2023/09/21 00:42:46;;;;;;;1.02;0.40;;;13.60;99.90;;;;;;5081508;28;20077;-74
2023/09/21 00:45:18;;;;;;;0.20;0.20;;;13.60;99.90;;;;;;5065364;28;20070;-74
2023/09/21 00:47:48;;;;;;;0.57;0.30;;;13.70;99.90;;;;;;5048117;28;20443;-74
2023/09/21 00:50:17;;;;;;;0.30;0.30;;;13.70;99.90;;;;;;5042782;28;20058;-75
2023/09/21 00:52:44;;;;;;;0.28;0.28;;;13.70;96.80;;;;;;5063387;28;20041;-74
2023/09/21 00:55:30;;;;;;;0.40;0.40;;;13.70;96.70;;;;;;5039509;28;20059;-75
2023/09/21 00:58:01;;;;;;;0.20;0.20;;;13.70;92.60;;;;;;5044227;28;20052;-75
2023/09/21 01:00:31;;;;;;;0.70;0.38;;;13.70;88.70;;;;;;5075031;28;20383;-75
2023/09/21 01:03:02;;;;;;;1.05;0.30;;;13.70;67.30;;;;;;5028041;28;20044;-75
2023/09/21 01:05:31;;;;;;;0.20;0.20;;;13.70;31.40;;;;;;5059138;28;20055;-75
2023/09/21 01:07:58;;;;;;;0.20;0.20;;;13.80;27.50;;;;;;5060817;28;20491;-75
2023/09/21 01:10:25;;;;;;;0.40;0.30;;;13.80;8.90;;;;;;5052804;28;20478;-75
2023/09/21 01:12:53;;;;;;;1.58;0.45;;;13.80;1.00;;;;;;5029902;28;20056;-74
2023/09/21 01:15:20;;;;;;;0.20;0.20;;;13.80;1.00;;;;;;5077455;28;20066;-75
2023/09/21 01:17:47;;;;;;;0.22;0.22;;;13.80;1.00;;;;;;5083096;28;20048;-74
2023/09/21 01:20:29;;;;;;;0.63;0.30;;;13.80;1.00;;;;;;5082482;28;20464;-74
2023/09/21 01:23:11;;;;;;;0.30;0.30;;;13.80;1.00;;;;;;5065952;28;20146;-74
2023/09/21 01:25:39;;;;;;;0.40;0.30;;;13.80;1.00;;;;;;5081787;28;20055;-74
2023/09/21 01:28:09;;;;;;;0.20;0.20;;;13.80;1.00;;;;;;5049031;28;20051;-74
2023/09/21 01:30:38;;;;;;;0.38;0.20;;;13.80;1.00;;;;;;5046754;28;20105;-75
2023/09/21 01:33:07;;;;;;;0.63;0.30;;;13.80;1.00;;;;;;5074354;28;20056;-74
2023/09/21 01:35:38;;;;;;;0.25;0.20;;;13.90;1.00;;;;;;5055845;28;20115;-74
2023/09/21 01:38:06;;;;;;;0.35;0.20;;;13.80;1.00;;;;;;5049409;28;20052;-74
2023/09/21 01:40:34;;;;;;;0.55;0.30;;;13.80;1.00;;;;;;5083768;28;20074;-75
2023/09/21 01:43:07;;;;;;;0.43;0.20;;;13.80;1.00;;;;;;5055305;28;20063;-74
2023/09/21 01:45:37;;;;;;;0.32;0.25;;;13.80;99.90;;;;;;5071709;28;20059;-74
2023/09/21 01:48:10;;;;;;;0.57;0.30;;;13.80;99.90;;;;;;5048217;28;20052;-74
2023/09/21 01:50:41;;;;;;;0.40;0.40;;;13.80;99.90;;;;;;5046771;28;20114;-74
2023/09/21 01:53:10;;;;;;;0.95;0.32;;;13.80;99.90;;;;;;5029791;28;20486;-74
2023/09/21 01:55:38;;;;;;;0.28;0.20;;;13.80;99.90;;;;;;5049612;28;20101;-74
2023/09/21 01:58:05;;;;;;;0.30;0.10;;;13.80;99.90;;;;;;5081559;28;20403;-74
2023/09/21 02:00:35;;;;;;;0.52;0.20;;;13.80;99.90;;;;;;5048916;28;20261;-74
2023/09/21 02:03:06;;;;;;;0.30;0.20;;;13.80;99.90;;;;;;5043330;28;20125;-74
2023/09/21 02:05:34;;;;;;;0.32;0.20;;;13.70;99.90;;;;;;5048594;28;20045;-74
2023/09/21 02:08:01;;;;;;;0.25;0.22;;;13.70;99.90;;;;;;5082215;28;20418;-74
2023/09/21 02:10:27;;;;;;;0.40;0.25;;;13.60;99.90;;;;;;5075492;28;20041;-74
2023/09/21 02:12:58;;;;;;;0.47;0.30;;;13.70;99.90;;;;;;5050498;28;20051;-74
2023/09/21 02:15:26;;;;;;;0.73;0.40;;;13.70;99.90;;;;;;5066638;28;20371;-74
2023/09/21 02:17:55;;;;;;;0.15;0.10;;;13.70;99.90;;;;;;5068613;28;20048;-74
2023/09/21 02:20:23;;;;;;;1.95;0.60;;;13.70;99.90;;;;;;5085111;28;20040;-74
2023/09/21 02:22:51;;;;;;;1.00;0.45;;;13.60;99.90;;;;;;5067594;28;20313;-74
2023/09/21 02:25:18;;;;;;;0.43;0.30;;;13.60;99.90;;;;;;5068228;28;20578;-74
2023/09/21 02:27:47;;;;;;;0.32;0.20;;;13.60;99.90;;;;;;5068046;28;20043;-75
2023/09/21 02:30:21;;;;;;;0.50;0.40;;;13.60;99.90;;;;;;5068555;28;20055;-74
2023/09/21 02:32:54;;;;;;;0.28;0.28;;;13.60;99.90;;;;;;5068330;28;20109;-75
2023/09/21 02:35:29;;;;;;;0.43;0.22;;;13.60;99.90;;;;;;5085024;28;20044;-75
2023/09/21 02:37:56;;;;;;;0.30;0.20;;;13.50;99.90;;;;;;5038033;28;20098;-75
2023/09/21 02:40:23;;;;;;;0.40;0.30;;;13.50;99.90;;;;;;5049569;28;20052;-74
2023/09/21 02:42:53;;;;;;;0.50;0.22;;;13.40;99.90;;;;;;5049104;28;20080;-75
2023/09/21 02:45:23;;;;;;;0.10;0.10;;;13.50;99.90;;;;;;5050166;28;20150;-75
2023/09/21 02:48:00;;;;;;;0.20;0.20;;;13.50;99.90;;;;;;5084499;28;20044;-75
2023/09/21 02:50:27;;;;;;;0.50;0.30;;;13.40;99.90;;;;;;5075044;28;20075;-75
2023/09/21 02:52:55;;;;;;;0.60;0.40;;;13.40;99.90;;;;;;5079709;28;20049;-74
2023/09/21 02:55:23;;;;;;;0.65;0.40;;;13.40;99.90;;;;;;5081146;28;20403;-75
2023/09/21 02:57:59;;;;;;;0.43;0.30;;;13.30;99.90;;;;;;5065601;28;20052;-75
2023/09/21 03:00:34;;;;;;;0.40;0.20;;;13.20;99.90;;;;;;5065596;28;20106;-75
2023/09/21 03:03:04;;;;;;;0.52;0.25;;;13.20;99.90;;;;;;5049773;28;20052;-74
2023/09/21 03:05:33;;;;;;;0.38;0.28;;;13.20;99.90;;;;;;5066553;28;20048;-75
2023/09/21 03:08:09;;;;;;;0.20;0.20;;;13.20;99.90;;;;;;5084602;28;20585;-75
2023/09/21 03:10:36;;;;;;;0.52;0.25;;;13.20;99.90;;;;;;5075944;28;20136;-75
2023/09/21 03:13:04;;;;;;;0.38;0.28;;;13.20;99.90;;;;;;5048769;28;20113;-74
2023/09/21 03:15:33;;;;;;;0.75;0.30;;;13.20;99.90;;;;;;5080655;28;20071;-75
2023/09/21 03:18:00;;;;;;;0.20;0.20;;;13.10;99.90;;;;;;5050744;28;20518;-74
2023/09/21 03:20:34;;;;;;;0.30;0.20;;;13.10;99.90;;;;;;5067584;28;20036;-75
2023/09/21 03:23:05;;;;;;;0.30;0.30;;;13.10;99.90;;;;;;5067032;28;20650;-75
2023/09/21 03:25:33;;;;;;;0.40;0.20;;;13.10;99.90;;;;;;5067599;28;20288;-75
2023/09/21 03:28:02;;;;;;;0.15;0.10;;;13.10;99.90;;;;;;5080768;28;20084;-75
2023/09/21 03:30:31;;;;;;;0.20;0.20;;;13.10;99.90;;;;;;5067424;28;20070;-75
2023/09/21 03:32:58;;;;;;;0.50;0.30;;;13.10;99.90;;;;;;5083603;28;20255;-75
2023/09/21 03:35:26;;;;;;;0.52;0.40;;;13.10;99.90;;;;;;5066715;28;20044;-75
2023/09/21 03:37:54;;;;;;;0.40;0.20;;;13.10;99.90;;;;;;5065687;28;20048;-76
2023/09/21 03:40:21;;;;;;;0.13;0.13;;;13.10;99.90;;;;;;5050479;28;20511;-75
2023/09/21 03:42:47;;;;;;;0.40;0.32;;;13.10;99.90;;;;;;5083073;28;20044;-75
2023/09/21 03:45:15;;;;;;;0.40;0.30;;;13.10;99.90;;;;;;5066994;28;20109;-75
2023/09/21 03:47:43;;;;;;;0.10;0.10;;;13.10;99.90;;;;;;5080521;28;20159;-75
2023/09/21 03:50:12;;;;;;;0.10;0.10;;;13.10;99.90;;;;;;5034956;28;20052;-74
2023/09/21 03:52:40;;;;;;;0.60;0.40;;;13.00;99.90;;;;;;5047036;28;20056;-75
2023/09/21 03:55:09;;;;;;;0.65;0.38;;;13.00;99.90;;;;;;5031763;28;20504;-74
2023/09/21 03:57:37;;;;;;;1.38;0.30;;;13.00;99.90;;;;;;5044661;28;20048;-74
2023/09/21 04:03:09;;;;;;;0.38;0.25;;;13.00;99.90;;;;;;5031103;28;20060;-74
2023/09/21 04:05:39;;;;;;;0.22;0.22;;;13.00;64.50;;;;;;5064279;28;20098;-74
2023/09/21 04:08:07;;;;;;;1.48;0.40;;;13.00;66.80;;;;;;5082029;28;20059;-74
2023/09/21 04:10:35;;;;;;;0.38;0.30;;;13.00;93.90;;;;;;5082632;28;20139;-74
2023/09/21 04:13:03;;;;;;;0.70;0.30;;;13.00;42.80;;;;;;5061837;28;20078;-75
2023/09/21 04:15:30;;;;;;;0.60;0.40;;;13.00;95.00;;;;;;5049180;28;20063;-75
2023/09/21 04:18:01;;;;;;;0.38;0.35;;;13.00;74.00;;;;;;5075032;28;20051;-75
2023/09/21 04:20:34;;;;;;;0.65;0.40;;;13.00;27.80;;;;;;5083286;28;20071;-75
2023/09/21 04:23:02;;;;;;;0.30;0.20;;;13.00;99.90;;;;;;5082716;28;20056;-75
2023/09/21 04:25:28;;;;;;;0.40;0.40;;;13.00;99.90;;;;;;5071636;28;20044;-75
2023/09/21 04:27:55;;;;;;;1.05;0.20;;;13.00;99.90;;;;;;5063852;28;20123;-76
2023/09/21 04:30:22;;;;;;;0.45;0.30;;;12.90;60.40;;;;;;5076967;28;20165;-74
2023/09/21 04:32:50;;;;;;;1.30;0.30;;;12.90;1.00;;;;;;5067584;28;20117;-74
2023/09/21 04:35:19;;;;;;;1.15;0.60;;;12.90;23.70;;;;;;5055154;28;20521;-74
2023/09/21 04:37:47;;;;;;;0.68;0.30;;;12.90;7.30;;;;;;5050404;28;20060;-74
2023/09/21 04:40:14;;;;;;;0.40;0.30;;;12.90;1.00;;;;;;5059452;28;20066;-74
2023/09/21 04:42:45;;;;;;;0.20;0.20;;;12.90;1.00;;;;;;5062529;28;20153;-74
2023/09/21 04:45:13;;;;;;;1.40;0.35;;;12.90;1.00;;;;;;5065438;28;20519;-74
2023/09/21 04:47:45;;;;;;;0.28;0.20;;;12.90;1.00;;;;;;5073183;28;20071;-75
2023/09/21 04:50:14;;;;;;;0.30;0.30;;;12.80;1.00;;;;;;5069917;28;20051;-75
2023/09/21 04:52:43;;;;;;;0.20;0.20;;;12.80;1.00;;;;;;5048677;28;20044;-75
2023/09/21 04:55:10;;;;;;;0.22;0.20;;;12.80;1.00;;;;;;5061365;28;20052;-76
2023/09/21 04:57:37;;;;;;;0.20;0.20;;;12.80;99.90;;;;;;5070902;28;20048;-76
2023/09/21 05:00:10;;;;;;;0.20;0.20;;;12.80;1.00;;;;;;5059338;28;20105;-76
2023/09/21 05:02:40;;;;;;;0.35;0.30;;;12.80;1.00;;;;;;5052456;28;20044;-77
2023/09/21 05:05:07;;;;;;;0.30;0.20;;;12.80;1.00;;;;;;5053958;28;20051;-75
2023/09/21 05:07:36;;;;;;;0.80;0.22;;;12.80;1.00;;;;;;5053113;28;20051;-76
2023/09/21 05:10:06;;;;;;;0.43;0.40;;;12.80;1.00;;;;;;5073193;28;20087;-76
2023/09/21 05:12:34;;;;;;;0.40;0.20;;;12.70;99.90;;;;;;5054094;28;20134;-76
2023/09/21 05:15:06;;;;;;;1.33;0.40;;;12.80;99.90;;;;;;5059029;28;20082;-76
2023/09/21 05:17:33;;;;;;;0.50;0.40;;;12.80;99.90;;;;;;5041185;28;20059;-76
2023/09/21 05:20:00;;;;;;;0.38;0.30;;;12.80;99.90;;;;;;5075287;28;20044;-76
2023/09/21 05:22:27;;;;;;;0.22;0.20;;;12.80;99.90;;;;;;5066693;28;20499;-75
2023/09/21 05:24:54;;;;;;;0.55;0.35;;;12.80;99.80;;;;;;5052410;28;20055;-75
2023/09/21 05:27:21;;;;;;;0.70;0.35;;;12.70;99.90;;;;;;5071289;28;20068;-75
2023/09/21 05:29:48;;;;;;;0.52;0.20;;;12.70;1.00;;;;;;5072279;28;20064;-75
2023/09/21 05:32:15;;;;;;;0.30;0.30;;;12.70;1.00;;;;;;5048954;28;20425;-72
2023/09/21 05:34:42;;;;;;;0.60;0.32;;;12.70;99.90;;;;;;5062783;28;20191;-72
2023/09/21 05:37:08;;;;;;;0.68;0.40;;;12.70;99.90;;;;;;5068130;28;20422;-71
2023/09/21 05:39:38;;;;;;;0.63;0.50;;;12.70;99.90;;;;;;5056147;28;20048;-72
2023/09/21 05:42:06;;;;;;;0.55;0.50;;;12.60;1.00;;;;;;5066808;28;20056;-72
2023/09/21 05:44:33;;;;;;;0.85;0.60;;;12.60;99.90;;;;;;5047967;28;20635;-72
2023/09/21 05:46:59;;;;;;;0.90;0.63;;;12.70;99.90;;;;;;5073045;28;20392;-72
2023/09/21 05:49:27;;;;;;;1.30;0.80;;;12.60;11.40;;;;;;5080094;28;20540;-72
2023/09/21 05:51:56;;;;;;;0.90;0.60;;;12.60;99.90;;;;;;5073046;28;20403;-72
2023/09/21 05:54:23;;;;;;;0.63;0.57;;;12.60;99.90;;;;;;5069638;28;20059;-72
2023/09/21 05:56:54;;;;;;;0.30;0.30;;;12.60;14.40;;;;;;5041284;28;20066;-73
2023/09/21 05:59:23;;;;;;;1.23;0.50;;;12.60;1.00;;;;;;5057889;28;20079;-73
2023/09/21 06:01:50;;;;;;;0.38;0.30;;;12.60;1.00;;;;;;5056071;28;20070;-73
2023/09/21 06:04:17;;;;;;;0.60;0.30;;;12.50;5.10;;;;;;5063954;28;20065;-73
2023/09/21 06:06:48;;;;;;;0.63;0.40;;;12.50;7.90;;;;;;5081812;28;21005;-72
2023/09/21 06:09:24;;;;;;;0.30;0.30;;;12.50;1.00;;;;;;5081418;28;20414;-73
2023/09/21 06:11:51;;;;;;;0.57;0.30;;;12.50;1.00;;;;;;5079493;28;20143;-74
2023/09/21 06:14:19;;;;;;;0.57;0.35;;;12.50;47.50;;;;;;5082815;28;20052;-73
2023/09/21 06:16:45;;;;;;;0.30;0.20;;;12.50;81.30;;;;;;5047243;28;20063;-74
2023/09/21 06:19:12;;;;;;;0.50;0.30;;;12.50;99.90;;;;;;5069120;28;20051;-74
2023/09/21 06:21:42;;;;;;;0.50;0.40;;;12.50;99.90;;;;;;5085411;28;20364;-73
2023/09/21 06:24:09;;;;;;;0.43;0.30;;;12.40;99.90;;;;;;5084008;28;20052;-74
2023/09/21 06:26:36;;;;;;;0.52;0.28;;;12.50;99.90;;;;;;5049829;28;20127;-73
2023/09/21 06:29:03;;;;;;;0.40;0.20;;;12.50;99.90;;;;;;5050073;28;20055;-74
2023/09/21 06:31:30;;;;;;;0.80;0.30;;;12.50;99.90;;;;;;5050609;28;20483;-73
2023/09/21 06:33:58;;;;;;;0.47;0.40;;;12.50;99.90;;;;;;5068557;28;20193;-74
2023/09/21 06:36:29;;;;;;;0.25;0.20;;;12.50;99.90;;;;;;5078217;28;20048;-74
2023/09/21 06:38:59;;;;;;;0.20;0.20;;;12.50;99.90;;;;;;5082058;28;20083;-74
2023/09/21 06:41:28;;;;;;;0.75;0.47;;;12.50;99.90;;;;;;5066826;28;20102;-73
2023/09/21 06:43:55;;;;;;;0.20;0.20;;;12.50;99.90;;;;;;5084104;28;20052;-74
2023/09/21 06:46:22;;;;;;;0.30;0.17;;;12.60;99.90;;;;;;5087790;28;20098;-74
2023/09/21 06:48:49;;;;;;;0.63;0.40;;;12.60;1.00;;;;;;5053659;28;20877;-74
2023/09/21 06:51:16;;;;;;;0.17;0.17;;;12.60;99.90;;;;;;5069627;28;20550;-74
2023/09/21 06:53:43;;;;;;;0.32;0.30;;;12.60;99.90;;;;;;5051596;28;20048;-74
2023/09/21 06:56:11;;;;;;;0.38;0.38;;;12.60;50.00;;;;;;5087711;28;20050;-74
2023/09/21 06:58:39;;;;;;;0.30;0.30;;;12.60;1.00;;;;;;5085658;28;20048;-74
2023/09/21 07:01:05;;;;;;;0.35;0.30;;;12.60;1.00;;;;;;5085796;28;20441;-74
2023/09/21 07:03:33;;;;;;;0.60;0.30;;;12.60;99.90;;;;;;5066503;28;20074;-74
2023/09/21 07:06:01;;;;;;;0.52;0.30;;;12.60;1.00;;;;;;5082741;28;20060;-74
2023/09/21 07:08:33;;;;;;;1.60;0.40;;;12.60;99.90;;;;;;5084883;28;20434;-73
2023/09/21 07:11:00;;;;;;;0.43;0.20;;;12.60;99.90;;;;;;5054498;28;20138;-74
2023/09/21 07:13:27;;;;;;;0.35;0.20;;;12.60;99.90;;;;;;5069429;28;20048;-76
2023/09/21 07:15:54;;;;;;;0.43;0.28;;;12.60;99.90;;;;;;5086155;28;20598;-73
2023/09/21 07:18:21;;;;;;;0.63;0.40;;;12.60;99.90;;;;;;5068733;28;20052;-76
2023/09/21 07:20:49;;;;;;;0.55;0.20;;;12.60;99.90;;;;;;5069473;28;20502;-76
2023/09/21 07:23:15;;;;;;;0.52;0.30;;;12.60;99.90;;;;;;5067786;28;20059;-75
2023/09/21 07:25:42;;;;;;;0.43;0.40;;;12.60;99.90;;;;;;5051323;28;20109;-74
2023/09/21 07:28:09;;;;;;;0.55;0.30;;;12.60;99.90;;;;;;5068945;28;20063;-74
2023/09/21 07:30:36;;;;;;;0.60;0.40;;;12.70;99.90;;;;;;5065312;28;20553;-74
2023/09/21 07:33:04;;;;;;;0.63;0.40;;;12.70;63.20;;;;;;5083538;28;20102;-74
2023/09/21 07:35:31;;;;;;;0.65;0.40;;;12.70;1.00;;;;;;5069382;28;20048;-74
2023/09/21 07:37:58;;;;;;;0.50;0.28;;;12.70;1.00;;;;;;5083926;28;20059;-74
2023/09/21 07:40:28;;;;;;;0.47;0.30;;;12.80;1.00;;;;;;5069016;28;20048;-74
2023/09/21 07:42:56;;;;;;;0.85;0.38;;;12.80;1.00;;;;;;5084975;28;20052;-75
2023/09/21 07:45:24;;;;;;;0.28;0.25;;;12.80;1.00;;;;;;5086570;28;20381;-74
2023/09/21 07:47:52;;;;;;;0.52;0.40;;;12.80;85.50;;;;;;5086460;28;20121;-74
2023/09/21 07:50:22;;;;;;;0.30;0.30;;;12.80;1.00;;;;;;5085199;28;20047;-74
2023/09/21 07:52:51;;;;;;;0.60;0.38;;;12.80;99.90;;;;;;5048109;28;20079;-74
2023/09/21 07:55:18;;;;;;;0.40;0.40;;;12.90;99.90;;;;;;5048781;28;20048;-74
2023/09/21 07:57:47;;;;;;;0.28;0.20;;;12.90;99.90;;;;;;5075075;28;20075;-74
2023/09/21 08:00:14;;;;;;;0.28;0.28;;;12.90;15.30;;;;;;5079940;28;20429;-73
2023/09/21 08:02:41;;;;;;;0.77;0.40;;;13.00;1.00;;;;;;5076869;28;20105;-74
2023/09/21 08:05:12;;;;;;;0.30;0.13;;;13.00;99.90;;;;;;5057404;28;20049;-75
2023/09/21 08:07:40;;;;;;;1.80;0.52;;;13.10;99.90;;;;;;5058594;28;20044;-74
2023/09/21 08:10:10;;;;;;;0.45;0.30;;;13.20;1.00;;;;;;5073757;28;20125;-74
2023/09/21 08:12:40;;;;;;;0.30;0.30;;;13.20;1.00;;;;;;5062203;28;20148;-74
2023/09/21 08:15:11;;;;;;;0.52;0.30;;;13.30;99.90;;;;;;5062241;28;20105;-74
2023/09/21 08:17:38;;;;;;;0.30;0.30;;;13.30;99.90;;;;;;5042739;28;20442;-74
2023/09/21 08:20:09;;;;;;;0.50;0.40;;;13.40;99.90;;;;;;5077968;28;20397;-74
2023/09/21 08:22:37;;;;;;;0.45;0.43;;;13.50;99.90;;;;;;5058350;28;20430;-74
2023/09/21 08:25:05;;;;;;;0.35;0.35;;;13.50;99.90;;;;;;5075303;28;20040;-74
2023/09/21 08:27:32;;;;;;;0.20;0.20;;;13.50;99.90;;;;;;5057138;28;20071;-74
2023/09/21 08:30:02;;;;;;;0.40;0.40;;;13.50;1.00;;;;;;5075590;28;20503;-74
2023/09/21 08:32:30;;;;;;;0.20;0.20;;;13.50;99.90;;;;;;5076124;28;20526;-74
2023/09/21 08:34:57;;;;;;;0.88;0.55;;;13.60;1.00;;;;;;5070973;28;20474;-74
2023/09/21 08:37:24;;;;;;;0.73;0.60;;;13.70;1.00;;;;;;5040061;28;20083;-74
2023/09/21 08:39:51;;;;;;;0.57;0.47;;;13.70;99.90;;;;;;5076749;28;20059;-74
2023/09/21 08:42:17;;;;;;;0.40;0.40;;;13.80;1.00;;;;;;5075609;28;20056;-73
2023/09/21 08:44:46;;;;;;;0.35;0.35;;;13.90;99.90;;;;;;5074158;28;20052;-74
2023/09/21 08:47:14;;;;;;;0.60;0.32;;;14.00;99.90;;;;;;5054492;28;20059;-74
2023/09/21 08:49:59;;;;;;;0.43;0.30;;;14.00;1.00;;;;;;5068055;28;20053;-75
2023/09/21 08:52:26;;;;;;;0.88;0.30;;;14.20;1.00;;;;;;5065777;28;20056;-73
2023/09/21 08:54:52;;;;;;;0.45;0.30;;;14.30;99.90;;;;;;5050741;28;20048;-73
2023/09/21 08:57:19;;;;;;;0.73;0.30;;;14.30;99.90;;;;;;5049806;28;20048;-73
2023/09/21 08:59:48;;;;;;;0.50;0.30;;;14.40;1.00;;;;;;5050392;28;20051;-74
2023/09/21 09:02:14;;;;;;;0.38;0.30;;;14.50;1.00;;;;;;5066467;28;20055;-73
2023/09/21 09:04:42;;;;;;;0.35;0.30;;;14.60;99.90;;;;;;5067198;28;20052;-73
2023/09/21 09:07:12;;;;;;;0.75;0.40;;;14.70;99.90;;;;;;5082526;28;20060;-73
2023/09/21 09:09:39;;;;;;;0.60;0.35;;;14.70;99.90;;;;;;5067207;28;20044;-76
2023/09/21 09:12:22;;;;;;;0.43;0.30;;;14.80;99.90;;;;;;5046826;28;20404;-73
2023/09/21 09:14:57;;;;;;;0.30;0.20;;;14.80;99.90;;;;;;5081651;28;20634;-74
2023/09/21 09:17:29;;;;;;;0.63;0.30;;;14.90;99.90;;;;;;5084508;28;20051;-73
2023/09/21 09:19:57;;;;;;;0.40;0.28;;;15.00;99.90;;;;;;5084780;28;20047;-73
2023/09/21 09:22:24;;;;;;;0.28;0.20;;;15.10;99.90;;;;;;5082223;28;20063;-74
2023/09/21 09:24:52;;;;;;;0.30;0.30;;;15.20;99.90;;;;;;5079640;28;20509;-74
2023/09/21 09:27:19;;;;;;;0.10;0.10;;;15.30;99.90;;;;;;5063199;28;20052;-73
2023/09/21 09:29:53;;;;;;;0.50;0.30;;;15.30;99.90;;;;;;5048978;28;20471;-73
2023/09/21 09:32:20;;;;;;;0.60;0.40;;;15.40;99.90;;;;;;5083004;28;20552;-74
2023/09/21 09:34:50;;;;;;;0.35;0.30;;;15.40;99.90;;;;;;5050436;28;20052;-74
2023/09/21 09:37:17;;;;;;;1.08;0.35;;;15.50;99.90;;;;;;5081744;28;20487;-74
2023/09/21 09:39:44;;;;;;;1.23;0.40;;;15.50;99.90;;;;;;5082944;28;20052;-74
2023/09/21 09:42:14;;;;;;;1.05;0.30;;;15.60;99.90;;;;;;5066607;28;20131;-74
2023/09/21 09:44:44;;;;;;;0.40;0.30;;;15.60;99.90;;;;;;5067012;28;20437;-74
2023/09/21 09:47:14;;;;;;;0.68;0.20;;;15.70;99.90;;;;;;5066418;28;20044;-74
2023/09/21 09:49:41;;;;;;;0.60;0.28;;;15.80;99.90;;;;;;5083010;28;20605;-74
2023/09/21 09:52:09;;;;;;;0.63;0.30;;;15.90;99.90;;;;;;5064614;28;20055;-74
2023/09/21 09:54:36;;;;;;;0.52;0.30;;;16.00;99.90;;;;;;5064101;28;20169;-74
2023/09/21 09:57:04;;;;;;;0.10;0.10;;;16.00;99.90;;;;;;5062494;28;20697;-74
2023/09/21 09:59:31;;;;;;;1.13;0.30;;;16.20;99.90;;;;;;5065330;28;20113;-73
2023/09/21 10:01:58;;;;;;;0.57;0.28;;;16.20;99.90;;;;;;5066157;28;20052;-74
2023/09/21 10:04:26;;;;;;;0.60;0.38;;;16.30;99.90;;;;;;5049496;28;20067;-74
2023/09/21 10:06:53;;;;;;;0.77;0.45;;;16.40;99.90;;;;;;5061399;28;20052;-73
2023/09/21 10:09:20;;;;;;;0.50;0.40;;;16.50;99.90;;;;;;5062342;28;20457;-73
2023/09/21 10:11:48;;;;;;;0.47;0.43;;;16.50;99.90;;;;;;5048554;28;20044;-73
2023/09/21 10:14:18;;;;;;;0.30;0.30;;;16.60;99.90;;;;;;5080553;28;20204;-74
2023/09/21 10:16:54;;;;;;;0.55;0.28;;;16.70;99.90;;;;;;5076145;28;20061;-73
2023/09/21 10:19:25;;;;;;;0.38;0.38;;;16.80;99.90;;;;;;5058040;28;20056;-73
2023/09/21 10:22:03;;;;;;;0.50;0.40;;;16.80;99.90;;;;;;5072436;28;20105;-73
2023/09/21 10:24:30;;;;;;;0.70;0.50;;;16.90;99.90;;;;;;5074873;28;20065;-73
2023/09/21 10:27:03;;;;;;;0.30;0.30;;;17.20;99.90;;;;;;5075148;28;20438;-73
2023/09/21 10:29:33;;;;;;;0.80;0.40;;;17.50;99.90;;;;;;5057471;28;20052;-74
2023/09/21 10:32:01;;;;;;;0.57;0.40;;;17.80;99.90;;;;;;5071517;28;20115;-74
2023/09/21 10:34:29;;;;;;;0.45;0.35;;;18.10;99.90;;;;;;5062927;28;20052;-73
2023/09/21 10:37:10;;;;;;;1.05;0.70;;;18.50;99.90;;;;;;5061536;28;20200;-73
2023/09/21 10:39:39;;;;;;;0.70;0.50;;;18.50;99.90;;;;;;5074329;28;20448;-74
2023/09/21 10:42:06;;;;;;;0.55;0.40;;;18.70;99.90;;;;;;5076801;28;20773;-73
2023/09/21 10:44:52;;;;;;;0.80;0.40;;;19.00;99.90;;;;;;5079157;28;20126;-74
2023/09/21 10:47:37;;;;;;;0.60;0.38;;;19.20;99.90;;;;;;5077815;28;20407;-74
2023/09/21 10:50:11;;;;;;;0.80;0.40;;;19.50;99.90;;;;;;5062038;28;20119;-74
2023/09/21 10:52:45;;;;;;;1.13;0.50;;;19.60;99.90;;;;;;5077608;28;20051;-73
2023/09/21 10:55:14;;;;;;;1.15;0.68;;;19.70;99.90;;;;;;5077270;28;20535;-73
2023/09/21 10:57:42;;;;;;;1.42;0.68;;;19.70;99.90;;;;;;5052572;28;20059;-74
2023/09/21 11:00:16;;;;;;;1.05;0.65;;;19.90;99.90;;;;;;5047530;28;20075;-74
2023/09/21 11:02:44;;;;;;;2.25;1.08;;;19.90;99.90;;;;;;5077197;28;20052;-73
2023/09/21 11:05:11;;;;;;;0.98;0.70;;;19.90;99.90;;;;;;5056373;28;20044;-74
2023/09/21 11:07:43;;;;;;;1.45;0.82;;;20.00;99.90;;;;;;5078102;28;20510;-74
2023/09/21 11:10:11;;;;;;;;;;;20.00;99.90;;;;;;5059510;28;20102;-74
2023/09/21 11:12:40;;;;;;;0.93;0.63;;;20.00;99.90;;;;;;5061167;28;19924;-73
2023/09/21 11:15:12;;;;;;;0.95;0.85;;;20.10;99.90;;;;;;5078733;28;20263;-73
2023/09/21 11:17:40;;;;;;;;;;;20.20;99.90;;;;;;5074228;28;20580;-74
2023/09/21 11:20:08;;;;;;;1.55;0.75;;;20.30;99.90;;;;;;5070964;28;19935;-73
2023/09/21 11:22:35;;;;;;;0.95;0.50;;;20.40;99.90;;;;;;5072363;28;20075;-74
2023/09/21 11:25:02;;;;;;;0.65;0.45;;;20.60;99.90;;;;;;5078221;28;20059;-74
2023/09/21 11:27:29;;;;;;;0.82;0.60;;;20.70;99.90;;;;;;5079006;28;20054;-74
2023/09/21 11:29:55;;;;;;;0.57;0.40;;;20.60;99.90;;;;;;5059282;28;20063;-74
2023/09/21 11:32:22;;;;;;;0.77;0.60;;;20.50;99.90;;;;;;5075670;28;20044;-74
2023/09/21 11:34:57;;;;;;;1.48;0.55;;;20.40;99.90;;;;;;5078252;28;20582;-74
2023/09/21 11:37:24;;;;;;;0.90;0.45;;;20.20;99.90;;;;;;5060377;28;20487;-74
2023/09/21 11:39:51;;;;;;;0.75;0.50;;;20.10;99.90;;;;;;5061160;28;20589;-74
2023/09/21 11:42:19;;;;;;;0.90;0.45;;;20.20;99.90;;;;;;5076198;28;20044;-74
2023/09/21 11:44:50;;;;;;;1.15;0.75;;;20.40;99.90;;;;;;5078109;28;20134;-74
2023/09/21 11:47:18;;;;;;;1.45;0.50;;;20.50;99.90;;;;;;5069179;28;20187;-74
2023/09/21 11:49:45;;;;;;;0.95;0.63;;;20.40;99.90;;;;;;5078884;28;20499;-74
2023/09/21 11:52:15;;;;;;;1.27;0.75;;;20.40;99.90;;;;;;5076298;28;20125;-74
2023/09/21 11:54:42;;;;;;;0.85;0.55;;;20.40;99.90;;;;;;5045193;28;20107;-74
2023/09/21 11:57:09;;;;;;;1.48;0.80;;;20.50;99.90;;;;;;5077688;28;20063;-73
2023/09/21 11:59:40;;;;;;;0.80;0.60;;;20.60;99.90;;;;;;5078047;28;20052;-74
2023/09/21 12:02:09;;;;;;;0.57;0.38;;;20.80;99.90;;;;;;5061025;28;20059;-74
2023/09/21 12:04:37;;;;;;;0.57;0.45;;;20.80;99.90;;;;;;5069448;28;20531;-74
2023/09/21 12:07:05;;;;;;;0.95;0.50;;;20.80;99.90;;;;;;5078322;28;20055;-74
2023/09/21 12:09:36;;;;;;;0.73;0.50;;;20.80;99.90;;;;;;5079229;28;20545;-73
2023/09/21 12:12:06;;;;;;;1.10;0.55;;;20.80;99.90;;;;;;5060024;28;20070;-74
2023/09/21 12:14:34;;;;;;;1.02;0.60;;;20.70;99.90;;;;;;5073134;28;20460;-74
2023/09/21 12:17:09;;;;;;;1.08;0.57;;;20.80;99.90;;;;;;5075023;28;20048;-74
2023/09/21 12:19:37;;;;;;;0.47;0.38;;;20.80;99.90;;;;;;5059494;28;20406;-74
2023/09/21 12:22:05;;;;;;;1.02;0.70;;;20.70;99.90;;;;;;5055538;28;20052;-74
2023/09/21 12:24:34;;;;;;;0.73;0.57;;;20.70;99.90;;;;;;5064163;28;20112;-74
2023/09/21 12:27:05;;;;;;;0.70;0.47;;;20.80;99.90;;;;;;5063247;28;20074;-74
2023/09/21 12:29:33;;;;;;;0.88;0.50;;;20.80;99.90;;;;;;5054543;28;20536;-74
2023/09/21 12:32:04;;;;;;;0.70;0.50;;;20.90;99.90;;;;;;5074474;28;20423;-74
2023/09/21 12:34:34;;;;;;;0.68;0.50;;;21.10;99.90;;;;;;5047830;28;20052;-74
2023/09/21 12:37:01;;;;;;;1.80;0.70;;;21.10;99.90;;;;;;5061766;28;20132;-74
2023/09/21 12:39:28;;;;;;;1.17;0.55;;;20.90;99.90;;;;;;5057120;28;20044;-74
2023/09/21 12:41:56;;;;;;;0.40;0.40;;;20.70;99.90;;;;;;5070920;28;20060;-74
2023/09/21 12:44:23;;;;;;;1.67;0.77;;;20.60;99.90;;;;;;5047543;28;20058;-74
2023/09/21 12:46:50;;;;;;;1.20;0.60;;;20.60;99.90;;;;;;5068655;28;20044;-74
2023/09/21 12:49:17;;;;;;;0.68;0.52;;;20.40;99.10;;;;;;5073727;28;20048;-74
2023/09/21 12:51:45;;;;;;;1.67;0.60;;;20.30;99.00;;;;;;5071903;28;20498;-74
2023/09/21 12:54:12;;;;;;;1.58;0.82;;;20.20;99.80;;;;;;5073679;28;20142;-73
2023/09/21 12:56:39;;;;;;;0.70;0.63;;;20.10;99.20;;;;;;5057340;28;20051;-75
2023/09/21 12:59:06;;;;;;;0.35;0.20;;;20.00;99.90;;;;;;5078604;28;20880;-74
2023/09/21 13:01:33;;;;;;;1.38;0.57;;;20.00;99.90;;;;;;5080632;28;20056;-75